sensor_id;sensor_type;location;lat;lon;timestamp;temperature;humidity
53711;DHT22;39605;52.704;6.752;2022-09-01T00:01:09;13.80;99.90
53711;DHT22;39605;52.704;6.752;2022-09-01T00:03:35;13.80;99.90
53711;DHT22;39605;52.704;6.752;2022-09-01T00:06:01;13.80;99.90
53711;DHT22;39605;52.704;6.752;2022-09-01T00:08:28;13.70;99.90
53711;DHT22;39605;52.704;6.752;2022-09-01T00:10:54;13.70;99.90
53711;DHT22;39605;52.704;6.752;2022-09-01T00:13:20;13.60;99.90
53711;DHT22;39605;52.704;6.752;2022-09-01T00:15:45;13.60;99.90
53711;DHT22;39605;52.704;6.752;2022-09-01T00:18:11;13.60;99.90
53711;DHT22;39605;52.704;6.752;2022-09-01T00:20:38;13.60;99.90
53711;DHT22;39605;52.704;6.752;2022-09-01T00:23:04;13.50;99.90
53711;DHT22;39605;52.704;6.752;2022-09-01T00:25:29;13.50;99.90
53711;DHT22;39605;52.704;6.752;2022-09-01T00:27:55;13.50;99.90
53711;DHT22;39605;52.704;6.752;2022-09-01T00:30:24;13.40;99.90
53711;DHT22;39605;52.704;6.752;2022-09-01T00:32:50;13.50;99.90
53711;DHT22;39605;52.704;6.752;2022-09-01T00:35:18;13.50;99.90
53711;DHT22;39605;52.704;6.752;2022-09-01T00:37:44;13.50;99.90
53711;DHT22;39605;52.704;6.752;2022-09-01T00:40:12;13.50;99.90
53711;DHT22;39605;52.704;6.752;2022-09-01T00:42:39;13.40;99.90
53711;DHT22;39605;52.704;6.752;2022-09-01T00:45:06;13.40;99.90
53711;DHT22;39605;52.704;6.752;2022-09-01T00:47:33;13.40;99.90
53711;DHT22;39605;52.704;6.752;2022-09-01T00:50:01;13.30;99.90
53711;DHT22;39605;52.704;6.752;2022-09-01T00:52:32;13.30;99.90
53711;DHT22;39605;52.704;6.752;2022-09-01T00:55:03;13.30;99.90
53711;DHT22;39605;52.704;6.752;2022-09-01T00:57:32;13.20;99.90
53711;DHT22;39605;52.704;6.752;2022-09-01T01:00:08;13.20;99.90
53711;DHT22;39605;52.704;6.752;2022-09-01T01:02:36;13.20;99.90
53711;DHT22;39605;52.704;6.752;2022-09-01T01:05:05;13.10;99.90
53711;DHT22;39605;52.704;6.752;2022-09-01T01:07:31;13.10;99.90
53711;DHT22;39605;52.704;6.752;2022-09-01T01:10:02;13.00;99.90
53711;DHT22;39605;52.704;6.752;2022-09-01T01:12:27;13.00;99.90
53711;DHT22;39605;52.704;6.752;2022-09-01T01:14:55;13.00;99.90
53711;DHT22;39605;52.704;6.752;2022-09-01T01:17:22;12.90;99.90
53711;DHT22;39605;52.704;6.752;2022-09-01T01:19:53;13.00;99.90
53711;DHT22;39605;52.704;6.752;2022-09-01T01:23:05;12.90;99.90
53711;DHT22;39605;52.704;6.752;2022-09-01T01:25:53;12.90;99.90
53711;DHT22;39605;52.704;6.752;2022-09-01T01:28:25;12.90;99.90
53711;DHT22;39605;52.704;6.752;2022-09-01T01:31:02;12.90;99.90
53711;DHT22;39605;52.704;6.752;2022-09-01T01:33:36;12.80;99.90
53711;DHT22;39605;52.704;6.752;2022-09-01T01:36:11;12.80;99.90
53711;DHT22;39605;52.704;6.752;2022-09-01T01:38:39;12.80;99.90
53711;DHT22;39605;52.704;6.752;2022-09-01T01:41:06;12.80;99.90
53711;DHT22;39605;52.704;6.752;2022-09-01T01:43:31;12.70;99.90
53711;DHT22;39605;52.704;6.752;2022-09-01T01:45:58;12.70;99.90
53711;DHT22;39605;52.704;6.752;2022-09-01T01:48:28;12.70;99.90
53711;DHT22;39605;52.704;6.752;2022-09-01T01:50:55;12.70;99.90
53711;DHT22;39605;52.704;6.752;2022-09-01T01:53:22;12.60;99.90
53711;DHT22;39605;52.704;6.752;2022-09-01T01:55:48;12.60;99.90
53711;DHT22;39605;52.704;6.752;2022-09-01T01:58:15;12.60;99.90
53711;DHT22;39605;52.704;6.752;2022-09-01T02:00:45;12.60;99.90
53711;DHT22;39605;52.704;6.752;2022-09-01T02:03:13;12.60;99.90
53711;DHT22;39605;52.704;6.752;2022-09-01T02:05:42;12.60;99.90
53711;DHT22;39605;52.704;6.752;2022-09-01T02:08:09;12.60;99.90
53711;DHT22;39605;52.704;6.752;2022-09-01T02:10:44;12.50;99.90
53711;DHT22;39605;52.704;6.752;2022-09-01T02:13:11;12.50;99.90
53711;DHT22;39605;52.704;6.752;2022-09-01T02:15:52;12.60;99.90
53711;DHT22;39605;52.704;6.752;2022-09-01T02:18:25;12.50;99.90
53711;DHT22;39605;52.704;6.752;2022-09-01T02:20:53;12.50;99.90
53711;DHT22;39605;52.704;6.752;2022-09-01T02:23:20;12.60;99.90
53711;DHT22;39605;52.704;6.752;2022-09-01T02:25:51;12.50;99.90
53711;DHT22;39605;52.704;6.752;2022-09-01T02:28:19;12.40;99.90
53711;DHT22;39605;52.704;6.752;2022-09-01T02:30:48;12.40;99.90
53711;DHT22;39605;52.704;6.752;2022-09-01T02:33:17;12.40;99.90
53711;DHT22;39605;52.704;6.752;2022-09-01T02:35:51;12.40;99.90
53711;DHT22;39605;52.704;6.752;2022-09-01T02:38:18;12.30;99.90
53711;DHT22;39605;52.704;6.752;2022-09-01T02:40:46;12.30;99.90
53711;DHT22;39605;52.704;6.752;2022-09-01T02:43:14;12.30;99.90
53711;DHT22;39605;52.704;6.752;2022-09-01T02:45:48;12.30;99.90
53711;DHT22;39605;52.704;6.752;2022-09-01T02:48:20;12.30;99.90
53711;DHT22;39605;52.704;6.752;2022-09-01T02:50:50;12.20;99.90
53711;DHT22;39605;52.704;6.752;2022-09-01T02:53:16;12.20;99.90
53711;DHT22;39605;52.704;6.752;2022-09-01T02:55:42;12.20;99.90
53711;DHT22;39605;52.704;6.752;2022-09-01T02:58:08;12.20;99.90
53711;DHT22;39605;52.704;6.752;2022-09-01T03:00:45;12.20;99.90
53711;DHT22;39605;52.704;6.752;2022-09-01T03:03:11;12.20;99.90
53711;DHT22;39605;52.704;6.752;2022-09-01T03:05:37;12.10;99.90
53711;DHT22;39605;52.704;6.752;2022-09-01T03:08:08;12.00;99.90
53711;DHT22;39605;52.704;6.752;2022-09-01T03:10:39;12.10;99.90
53711;DHT22;39605;52.704;6.752;2022-09-01T03:13:24;12.10;99.90
53711;DHT22;39605;52.704;6.752;2022-09-01T03:15:50;12.10;99.90
53711;DHT22;39605;52.704;6.752;2022-09-01T03:18:16;12.10;99.90
53711;DHT22;39605;52.704;6.752;2022-09-01T03:20:45;12.00;99.90
53711;DHT22;39605;52.704;6.752;2022-09-01T03:23:13;12.00;99.90
53711;DHT22;39605;52.704;6.752;2022-09-01T03:25:41;12.00;99.90
53711;DHT22;39605;52.704;6.752;2022-09-01T03:28:08;12.00;99.90
53711;DHT22;39605;52.704;6.752;2022-09-01T03:30:35;12.00;99.90
53711;DHT22;39605;52.704;6.752;2022-09-01T03:33:05;11.90;99.90
53711;DHT22;39605;52.704;6.752;2022-09-01T03:35:32;11.90;99.90
53711;DHT22;39605;52.704;6.752;2022-09-01T03:38:00;11.90;99.90
53711;DHT22;39605;52.704;6.752;2022-09-01T03:40:28;11.90;99.90
53711;DHT22;39605;52.704;6.752;2022-09-01T03:43:00;11.90;99.90
53711;DHT22;39605;52.704;6.752;2022-09-01T03:45:28;11.90;99.90
53711;DHT22;39605;52.704;6.752;2022-09-01T03:47:54;11.90;99.90
53711;DHT22;39605;52.704;6.752;2022-09-01T03:50:23;11.90;99.90
53711;DHT22;39605;52.704;6.752;2022-09-01T03:52:54;11.90;99.90
53711;DHT22;39605;52.704;6.752;2022-09-01T03:55:24;11.90;99.90
53711;DHT22;39605;52.704;6.752;2022-09-01T03:57:56;12.00;99.90
53711;DHT22;39605;52.704;6.752;2022-09-01T04:00:25;11.90;99.90
53711;DHT22;39605;52.704;6.752;2022-09-01T04:02:56;12.00;99.90
53711;DHT22;39605;52.704;6.752;2022-09-01T04:05:25;11.90;99.90
53711;DHT22;39605;52.704;6.752;2022-09-01T04:07:55;11.90;99.90
53711;DHT22;39605;52.704;6.752;2022-09-01T04:10:21;11.90;99.90
53711;DHT22;39605;52.704;6.752;2022-09-01T04:12:47;11.90;99.90
53711;DHT22;39605;52.704;6.752;2022-09-01T04:15:14;11.90;99.90
53711;DHT22;39605;52.704;6.752;2022-09-01T04:17:45;12.00;99.90
53711;DHT22;39605;52.704;6.752;2022-09-01T04:20:37;11.90;99.90
53711;DHT22;39605;52.704;6.752;2022-09-01T04:23:17;12.00;99.90
53711;DHT22;39605;52.704;6.752;2022-09-01T04:25:48;11.90;99.90
53711;DHT22;39605;52.704;6.752;2022-09-01T04:28:15;12.00;99.90
53711;DHT22;39605;52.704;6.752;2022-09-01T04:30:55;12.00;99.90
53711;DHT22;39605;52.704;6.752;2022-09-01T04:33:24;11.90;99.90
53711;DHT22;39605;52.704;6.752;2022-09-01T04:35:50;11.90;99.90
53711;DHT22;39605;52.704;6.752;2022-09-01T04:38:16;11.90;99.90
53711;DHT22;39605;52.704;6.752;2022-09-01T04:40:42;11.90;99.90
53711;DHT22;39605;52.704;6.752;2022-09-01T04:43:08;11.90;99.90
53711;DHT22;39605;52.704;6.752;2022-09-01T04:45:35;11.90;99.90
53711;DHT22;39605;52.704;6.752;2022-09-01T04:48:04;11.90;99.90
53711;DHT22;39605;52.704;6.752;2022-09-01T04:50:30;11.80;99.90
53711;DHT22;39605;52.704;6.752;2022-09-01T04:52:57;11.80;99.90
53711;DHT22;39605;52.704;6.752;2022-09-01T04:55:26;11.80;99.90
53711;DHT22;39605;52.704;6.752;2022-09-01T04:57:58;11.80;99.90
53711;DHT22;39605;52.704;6.752;2022-09-01T05:00:26;11.80;99.90
53711;DHT22;39605;52.704;6.752;2022-09-01T05:02:58;11.80;99.90
53711;DHT22;39605;52.704;6.752;2022-09-01T05:05:50;11.80;99.90
53711;DHT22;39605;52.704;6.752;2022-09-01T05:08:19;11.70;99.90
53711;DHT22;39605;52.704;6.752;2022-09-01T05:10:49;11.70;99.90
53711;DHT22;39605;52.704;6.752;2022-09-01T05:13:18;11.70;99.90
53711;DHT22;39605;52.704;6.752;2022-09-01T05:15:47;11.70;99.90
53711;DHT22;39605;52.704;6.752;2022-09-01T05:18:18;11.70;99.90
53711;DHT22;39605;52.704;6.752;2022-09-01T05:20:53;11.80;99.90
53711;DHT22;39605;52.704;6.752;2022-09-01T05:23:19;11.80;99.90
53711;DHT22;39605;52.704;6.752;2022-09-01T05:25:48;11.90;99.90
53711;DHT22;39605;52.704;6.752;2022-09-01T05:28:17;11.90;99.90
53711;DHT22;39605;52.704;6.752;2022-09-01T05:30:45;11.90;99.90
53711;DHT22;39605;52.704;6.752;2022-09-01T05:33:13;11.90;99.90
53711;DHT22;39605;52.704;6.752;2022-09-01T05:35:56;12.00;99.90
53711;DHT22;39605;52.704;6.752;2022-09-01T05:38:24;12.00;99.90
53711;DHT22;39605;52.704;6.752;2022-09-01T05:40:59;12.10;99.90
53711;DHT22;39605;52.704;6.752;2022-09-01T05:43:29;12.10;99.90
53711;DHT22;39605;52.704;6.752;2022-09-01T05:45:56;12.10;99.90
53711;DHT22;39605;52.704;6.752;2022-09-01T05:48:22;12.20;99.90
53711;DHT22;39605;52.704;6.752;2022-09-01T05:50:50;12.20;99.90
53711;DHT22;39605;52.704;6.752;2022-09-01T05:53:21;12.30;99.90
53711;DHT22;39605;52.704;6.752;2022-09-01T05:55:51;12.30;99.90
53711;DHT22;39605;52.704;6.752;2022-09-01T05:58:25;12.30;99.90
53711;DHT22;39605;52.704;6.752;2022-09-01T06:00:53;12.40;99.90
53711;DHT22;39605;52.704;6.752;2022-09-01T06:03:20;12.50;99.90
53711;DHT22;39605;52.704;6.752;2022-09-01T06:05:47;12.50;99.90
53711;DHT22;39605;52.704;6.752;2022-09-01T06:08:19;12.60;99.90
53711;DHT22;39605;52.704;6.752;2022-09-01T06:10:46;12.60;99.90
53711;DHT22;39605;52.704;6.752;2022-09-01T06:13:15;12.70;99.90
53711;DHT22;39605;52.704;6.752;2022-09-01T06:15:42;12.70;99.90
53711;DHT22;39605;52.704;6.752;2022-09-01T06:18:12;12.80;99.90
53711;DHT22;39605;52.704;6.752;2022-09-01T06:20:44;12.80;99.90
53711;DHT22;39605;52.704;6.752;2022-09-01T06:23:10;12.80;99.90
53711;DHT22;39605;52.704;6.752;2022-09-01T06:25:44;12.90;99.90
53711;DHT22;39605;52.704;6.752;2022-09-01T06:28:15;13.00;99.90
53711;DHT22;39605;52.704;6.752;2022-09-01T06:30:42;13.10;99.90
53711;DHT22;39605;52.704;6.752;2022-09-01T06:33:10;13.00;99.90
53711;DHT22;39605;52.704;6.752;2022-09-01T06:35:39;13.20;99.90
53711;DHT22;39605;52.704;6.752;2022-09-01T06:38:07;13.30;99.90
53711;DHT22;39605;52.704;6.752;2022-09-01T06:40:33;13.30;99.90
53711;DHT22;39605;52.704;6.752;2022-09-01T06:42:59;13.40;99.90
53711;DHT22;39605;52.704;6.752;2022-09-01T06:45:26;13.50;99.90
53711;DHT22;39605;52.704;6.752;2022-09-01T06:47:52;13.60;99.90
53711;DHT22;39605;52.704;6.752;2022-09-01T06:50:21;13.70;99.90
53711;DHT22;39605;52.704;6.752;2022-09-01T06:52:50;13.80;99.90
53711;DHT22;39605;52.704;6.752;2022-09-01T06:55:28;14.10;99.90
53711;DHT22;39605;52.704;6.752;2022-09-01T06:57:56;14.40;99.90
53711;DHT22;39605;52.704;6.752;2022-09-01T07:00:22;15.20;99.90
53711;DHT22;39605;52.704;6.752;2022-09-01T07:02:53;16.30;99.90
53711;DHT22;39605;52.704;6.752;2022-09-01T07:05:20;17.30;99.90
53711;DHT22;39605;52.704;6.752;2022-09-01T07:07:51;17.70;99.90
53711;DHT22;39605;52.704;6.752;2022-09-01T07:10:19;17.80;99.90
53711;DHT22;39605;52.704;6.752;2022-09-01T07:12:56;17.70;99.90
53711;DHT22;39605;52.704;6.752;2022-09-01T07:15:26;17.80;99.90
53711;DHT22;39605;52.704;6.752;2022-09-01T07:17:56;17.90;99.90
53711;DHT22;39605;52.704;6.752;2022-09-01T07:20:26;17.80;99.90
53711;DHT22;39605;52.704;6.752;2022-09-01T07:22:54;17.90;99.90
53711;DHT22;39605;52.704;6.752;2022-09-01T07:25:20;18.10;99.90
53711;DHT22;39605;52.704;6.752;2022-09-01T07:27:47;18.20;99.90
53711;DHT22;39605;52.704;6.752;2022-09-01T07:30:20;18.20;99.90
53711;DHT22;39605;52.704;6.752;2022-09-01T07:32:46;18.20;99.90
53711;DHT22;39605;52.704;6.752;2022-09-01T07:35:15;18.30;99.90
53711;DHT22;39605;52.704;6.752;2022-09-01T07:37:42;18.60;99.90
53711;DHT22;39605;52.704;6.752;2022-09-01T07:40:14;18.80;99.90
53711;DHT22;39605;52.704;6.752;2022-09-01T07:42:45;18.80;99.90
53711;DHT22;39605;52.704;6.752;2022-09-01T07:45:13;18.70;99.90
53711;DHT22;39605;52.704;6.752;2022-09-01T07:47:39;18.50;99.90
53711;DHT22;39605;52.704;6.752;2022-09-01T07:50:07;18.30;99.90
53711;DHT22;39605;52.704;6.752;2022-09-01T07:52:34;18.30;99.90
53711;DHT22;39605;52.704;6.752;2022-09-01T07:55:02;18.20;99.90
53711;DHT22;39605;52.704;6.752;2022-09-01T07:57:28;18.10;99.90
53711;DHT22;39605;52.704;6.752;2022-09-01T07:59:53;18.10;99.90
53711;DHT22;39605;52.704;6.752;2022-09-01T08:02:20;18.10;99.90
53711;DHT22;39605;52.704;6.752;2022-09-01T08:04:47;18.00;99.90
53711;DHT22;39605;52.704;6.752;2022-09-01T08:07:13;18.00;99.90
53711;DHT22;39605;52.704;6.752;2022-09-01T08:09:39;18.00;99.90
53711;DHT22;39605;52.704;6.752;2022-09-01T08:12:06;18.00;99.90
53711;DHT22;39605;52.704;6.752;2022-09-01T08:14:32;17.90;99.90
53711;DHT22;39605;52.704;6.752;2022-09-01T08:16:57;18.00;99.90
53711;DHT22;39605;52.704;6.752;2022-09-01T08:19:23;18.00;99.90
53711;DHT22;39605;52.704;6.752;2022-09-01T08:21:49;18.00;99.90
53711;DHT22;39605;52.704;6.752;2022-09-01T08:24:14;18.10;99.90
53711;DHT22;39605;52.704;6.752;2022-09-01T08:26:40;18.10;99.90
53711;DHT22;39605;52.704;6.752;2022-09-01T08:29:06;18.20;99.90
53711;DHT22;39605;52.704;6.752;2022-09-01T08:31:31;18.30;99.90
53711;DHT22;39605;52.704;6.752;2022-09-01T08:33:58;18.30;99.90
53711;DHT22;39605;52.704;6.752;2022-09-01T08:36:24;18.40;99.90
53711;DHT22;39605;52.704;6.752;2022-09-01T08:38:50;18.50;99.90
53711;DHT22;39605;52.704;6.752;2022-09-01T08:47:02;18.80;99.90
53711;DHT22;39605;52.704;6.752;2022-09-01T08:49:30;19.00;99.90
53711;DHT22;39605;52.704;6.752;2022-09-01T08:54:54;19.20;99.90
53711;DHT22;39605;52.704;6.752;2022-09-01T08:57:35;19.30;99.90
53711;DHT22;39605;52.704;6.752;2022-09-01T09:00:02;19.50;99.90
53711;DHT22;39605;52.704;6.752;2022-09-01T09:08:44;20.10;99.90
53711;DHT22;39605;52.704;6.752;2022-09-01T09:16:26;20.60;99.90
53711;DHT22;39605;52.704;6.752;2022-09-01T09:18:57;20.70;99.80
53711;DHT22;39605;52.704;6.752;2022-09-01T09:23:59;21.00;97.90
53711;DHT22;39605;52.704;6.752;2022-09-01T09:26:29;21.20;98.60
53711;DHT22;39605;52.704;6.752;2022-09-01T09:28:55;21.30;96.00
53711;DHT22;39605;52.704;6.752;2022-09-01T09:31:36;21.30;96.20
53711;DHT22;39605;52.704;6.752;2022-09-01T09:34:40;21.40;96.60
53711;DHT22;39605;52.704;6.752;2022-09-01T09:39:41;21.60;94.60
53711;DHT22;39605;52.704;6.752;2022-09-01T09:42:10;21.70;93.50
53711;DHT22;39605;52.704;6.752;2022-09-01T09:44:46;21.80;94.20
53711;DHT22;39605;52.704;6.752;2022-09-01T09:50:19;22.10;95.00
53711;DHT22;39605;52.704;6.752;2022-09-01T09:52:48;22.20;93.90
53711;DHT22;39605;52.704;6.752;2022-09-01T09:55:24;22.30;91.90
53711;DHT22;39605;52.704;6.752;2022-09-01T09:57:53;22.50;93.20
53711;DHT22;39605;52.704;6.752;2022-09-01T10:00:31;22.50;92.00
53711;DHT22;39605;52.704;6.752;2022-09-01T10:03:02;22.60;91.90
53711;DHT22;39605;52.704;6.752;2022-09-01T10:05:46;22.70;92.50
53711;DHT22;39605;52.704;6.752;2022-09-01T10:08:40;22.90;92.00
53711;DHT22;39605;52.704;6.752;2022-09-01T10:11:12;22.90;89.20
53711;DHT22;39605;52.704;6.752;2022-09-01T10:13:48;23.10;90.30
53711;DHT22;39605;52.704;6.752;2022-09-01T10:16:21;23.10;89.80
53711;DHT22;39605;52.704;6.752;2022-09-01T10:18:49;23.10;87.40
53711;DHT22;39605;52.704;6.752;2022-09-01T10:21:37;23.10;88.90
53711;DHT22;39605;52.704;6.752;2022-09-01T10:26:53;23.40;90.20
53711;DHT22;39605;52.704;6.752;2022-09-01T10:29:56;23.70;90.20
53711;DHT22;39605;52.704;6.752;2022-09-01T10:32:31;23.80;83.30
53711;DHT22;39605;52.704;6.752;2022-09-01T10:34:58;23.90;81.80
53711;DHT22;39605;52.704;6.752;2022-09-01T10:37:26;24.10;83.50
53711;DHT22;39605;52.704;6.752;2022-09-01T10:42:49;24.20;82.20
53711;DHT22;39605;52.704;6.752;2022-09-01T10:45:33;24.50;82.70
53711;DHT22;39605;52.704;6.752;2022-09-01T10:48:23;24.70;80.10
53711;DHT22;39605;52.704;6.752;2022-09-01T10:50:53;24.80;79.80
53711;DHT22;39605;52.704;6.752;2022-09-01T10:56:14;24.90;80.50
53711;DHT22;39605;52.704;6.752;2022-09-01T11:04:11;25.10;74.10
53711;DHT22;39605;52.704;6.752;2022-09-01T11:09:16;25.10;73.20
53711;DHT22;39605;52.704;6.752;2022-09-01T11:14:32;25.00;74.80
53711;DHT22;39605;52.704;6.752;2022-09-01T11:19:45;25.20;75.20
53711;DHT22;39605;52.704;6.752;2022-09-01T11:22:30;25.40;72.30
53711;DHT22;39605;52.704;6.752;2022-09-01T11:25:33;25.30;72.70
53711;DHT22;39605;52.704;6.752;2022-09-01T11:33:42;25.60;71.30
53711;DHT22;39605;52.704;6.752;2022-09-01T11:36:00;25.90;68.80
53711;DHT22;39605;52.704;6.752;2022-09-01T11:38:28;26.00;70.00
53711;DHT22;39605;52.704;6.752;2022-09-01T11:40:57;26.20;69.20
53711;DHT22;39605;52.704;6.752;2022-09-01T11:43:23;26.10;66.10
53711;DHT22;39605;52.704;6.752;2022-09-01T11:46:13;26.10;67.70
53711;DHT22;39605;52.704;6.752;2022-09-01T11:48:46;26.20;68.10
53711;DHT22;39605;52.704;6.752;2022-09-01T11:51:13;26.20;65.60
53711;DHT22;39605;52.704;6.752;2022-09-01T11:53:41;26.00;66.50
53711;DHT22;39605;52.704;6.752;2022-09-01T11:56:24;26.10;66.90
53711;DHT22;39605;52.704;6.752;2022-09-01T11:58:50;26.10;66.30
53711;DHT22;39605;52.704;6.752;2022-09-01T12:01:22;26.30;63.90
53711;DHT22;39605;52.704;6.752;2022-09-01T12:03:55;26.50;66.20
53711;DHT22;39605;52.704;6.752;2022-09-01T12:06:25;26.50;63.90
53711;DHT22;39605;52.704;6.752;2022-09-01T12:09:02;26.50;62.60
53711;DHT22;39605;52.704;6.752;2022-09-01T12:11:34;26.70;62.30
53711;DHT22;39605;52.704;6.752;2022-09-01T12:14:04;26.90;61.90
53711;DHT22;39605;52.704;6.752;2022-09-01T12:16:31;27.10;62.10
53711;DHT22;39605;52.704;6.752;2022-09-01T12:18:59;26.90;61.50
53711;DHT22;39605;52.704;6.752;2022-09-01T12:23:51;26.00;61.00
53711;DHT22;39605;52.704;6.752;2022-09-01T12:26:23;25.70;60.60
53711;DHT22;39605;52.704;6.752;2022-09-01T12:28:49;25.80;62.80
53711;DHT22;39605;52.704;6.752;2022-09-01T12:31:20;26.00;61.70
53711;DHT22;39605;52.704;6.752;2022-09-01T12:33:47;26.30;60.80
53711;DHT22;39605;52.704;6.752;2022-09-01T12:36:35;26.40;61.20
53711;DHT22;39605;52.704;6.752;2022-09-01T12:39:22;26.70;63.80
53711;DHT22;39605;52.704;6.752;2022-09-01T12:42:07;27.00;60.00
53711;DHT22;39605;52.704;6.752;2022-09-01T12:47:05;26.60;60.10
53711;DHT22;39605;52.704;6.752;2022-09-01T12:49:42;26.20;59.70
53711;DHT22;39605;52.704;6.752;2022-09-01T12:54:45;26.10;61.40
53711;DHT22;39605;52.704;6.752;2022-09-01T12:57:28;26.20;60.90
53711;DHT22;39605;52.704;6.752;2022-09-01T13:02:45;26.10;58.50
53711;DHT22;39605;52.704;6.752;2022-09-01T13:05:32;26.30;63.70
53711;DHT22;39605;52.704;6.752;2022-09-01T13:08:01;26.60;60.00
53711;DHT22;39605;52.704;6.752;2022-09-01T13:10:37;26.70;57.60
53711;DHT22;39605;52.704;6.752;2022-09-01T13:13:04;26.70;57.60
53711;DHT22;39605;52.704;6.752;2022-09-01T13:15:31;26.80;57.00
53711;DHT22;39605;52.704;6.752;2022-09-01T13:17:57;26.90;56.50
53711;DHT22;39605;52.704;6.752;2022-09-01T13:20:22;26.60;56.90
53711;DHT22;39605;52.704;6.752;2022-09-01T13:22:48;26.40;58.30
53711;DHT22;39605;52.704;6.752;2022-09-01T13:25:17;26.10;58.90
53711;DHT22;39605;52.704;6.752;2022-09-01T13:27:44;25.80;59.10
53711;DHT22;39605;52.704;6.752;2022-09-01T13:30:13;25.90;58.80
53711;DHT22;39605;52.704;6.752;2022-09-01T13:32:41;25.70;57.30
53711;DHT22;39605;52.704;6.752;2022-09-01T13:35:10;25.60;57.60
53711;DHT22;39605;52.704;6.752;2022-09-01T13:37:36;25.50;57.00
53711;DHT22;39605;52.704;6.752;2022-09-01T13:40:03;25.60;57.30
53711;DHT22;39605;52.704;6.752;2022-09-01T13:42:30;25.80;58.20
53711;DHT22;39605;52.704;6.752;2022-09-01T13:44:55;25.80;57.90
53711;DHT22;39605;52.704;6.752;2022-09-01T13:47:21;25.80;59.90
53711;DHT22;39605;52.704;6.752;2022-09-01T13:49:49;25.60;58.70
53711;DHT22;39605;52.704;6.752;2022-09-01T13:52:14;25.50;58.20
53711;DHT22;39605;52.704;6.752;2022-09-01T13:54:40;25.40;58.00
53711;DHT22;39605;52.704;6.752;2022-09-01T13:57:08;25.20;56.70
53711;DHT22;39605;52.704;6.752;2022-09-01T13:59:36;25.10;59.80
53711;DHT22;39605;52.704;6.752;2022-09-01T14:02:02;25.20;59.50
53711;DHT22;39605;52.704;6.752;2022-09-01T14:04:28;25.40;58.20
53711;DHT22;39605;52.704;6.752;2022-09-01T14:06:54;25.70;58.20
53711;DHT22;39605;52.704;6.752;2022-09-01T14:09:20;25.90;57.50
53711;DHT22;39605;52.704;6.752;2022-09-01T14:11:46;26.20;57.10
53711;DHT22;39605;52.704;6.752;2022-09-01T14:14:11;26.40;57.50
53711;DHT22;39605;52.704;6.752;2022-09-01T14:16:37;26.40;56.70
53711;DHT22;39605;52.704;6.752;2022-09-01T14:19:03;26.30;55.20
53711;DHT22;39605;52.704;6.752;2022-09-01T14:21:30;26.30;55.50
53711;DHT22;39605;52.704;6.752;2022-09-01T14:23:58;26.30;56.40
53711;DHT22;39605;52.704;6.752;2022-09-01T14:26:25;26.30;56.20
53711;DHT22;39605;52.704;6.752;2022-09-01T14:28:51;26.20;56.30
53711;DHT22;39605;52.704;6.752;2022-09-01T14:31:17;26.20;55.90
53711;DHT22;39605;52.704;6.752;2022-09-01T14:33:44;26.20;56.30
53711;DHT22;39605;52.704;6.752;2022-09-01T14:36:20;26.10;55.80
53711;DHT22;39605;52.704;6.752;2022-09-01T14:38:53;26.10;55.10
53711;DHT22;39605;52.704;6.752;2022-09-01T14:41:20;26.10;55.80
53711;DHT22;39605;52.704;6.752;2022-09-01T14:43:51;26.00;56.00
53711;DHT22;39605;52.704;6.752;2022-09-01T14:46:17;26.10;56.20
53711;DHT22;39605;52.704;6.752;2022-09-01T14:48:44;26.20;55.10
53711;DHT22;39605;52.704;6.752;2022-09-01T14:51:23;26.10;54.50
53711;DHT22;39605;52.704;6.752;2022-09-01T14:53:49;26.00;56.00
53711;DHT22;39605;52.704;6.752;2022-09-01T14:56:15;26.00;55.90
53711;DHT22;39605;52.704;6.752;2022-09-01T14:58:46;26.10;55.60
53711;DHT22;39605;52.704;6.752;2022-09-01T15:01:14;26.10;54.40
53711;DHT22;39605;52.704;6.752;2022-09-01T15:03:41;25.90;55.30
53711;DHT22;39605;52.704;6.752;2022-09-01T15:06:07;25.90;55.00
53711;DHT22;39605;52.704;6.752;2022-09-01T15:08:32;25.80;55.50
53711;DHT22;39605;52.704;6.752;2022-09-01T15:10:58;25.80;54.70
53711;DHT22;39605;52.704;6.752;2022-09-01T15:13:25;25.60;54.20
53711;DHT22;39605;52.704;6.752;2022-09-01T15:15:51;25.50;55.10
53711;DHT22;39605;52.704;6.752;2022-09-01T15:18:18;25.40;54.50
53711;DHT22;39605;52.704;6.752;2022-09-01T15:20:43;25.30;55.30
53711;DHT22;39605;52.704;6.752;2022-09-01T15:23:14;25.20;55.10
53711;DHT22;39605;52.704;6.752;2022-09-01T15:25:41;25.20;55.10
53711;DHT22;39605;52.704;6.752;2022-09-01T15:28:07;25.20;55.70
53711;DHT22;39605;52.704;6.752;2022-09-01T15:30:33;25.20;56.10
53711;DHT22;39605;52.704;6.752;2022-09-01T15:33:00;25.20;55.10
53711;DHT22;39605;52.704;6.752;2022-09-01T15:35:27;25.10;55.70
53711;DHT22;39605;52.704;6.752;2022-09-01T15:37:53;25.00;54.10
53711;DHT22;39605;52.704;6.752;2022-09-01T15:40:21;24.80;54.10
53711;DHT22;39605;52.704;6.752;2022-09-01T15:42:48;24.70;54.30
53711;DHT22;39605;52.704;6.752;2022-09-01T15:45:18;24.60;54.20
53711;DHT22;39605;52.704;6.752;2022-09-01T15:47:45;24.50;54.70
53711;DHT22;39605;52.704;6.752;2022-09-01T15:50:14;24.50;55.00
53711;DHT22;39605;52.704;6.752;2022-09-01T15:52:55;24.30;55.10
53711;DHT22;39605;52.704;6.752;2022-09-01T15:55:30;24.20;56.80
53711;DHT22;39605;52.704;6.752;2022-09-01T15:58:01;24.10;56.20
53711;DHT22;39605;52.704;6.752;2022-09-01T16:00:27;23.90;55.10
53711;DHT22;39605;52.704;6.752;2022-09-01T16:02:54;23.80;56.10
53711;DHT22;39605;52.704;6.752;2022-09-01T16:05:21;23.70;57.50
53711;DHT22;39605;52.704;6.752;2022-09-01T16:07:46;23.60;56.50
53711;DHT22;39605;52.704;6.752;2022-09-01T16:10:14;23.60;56.40
53711;DHT22;39605;52.704;6.752;2022-09-01T16:12:42;23.60;55.80
53711;DHT22;39605;52.704;6.752;2022-09-01T16:15:10;23.60;55.50
53711;DHT22;39605;52.704;6.752;2022-09-01T16:23:19;23.60;56.40
53711;DHT22;39605;52.704;6.752;2022-09-01T16:25:45;23.50;56.00
53711;DHT22;39605;52.704;6.752;2022-09-01T16:28:28;23.50;56.60
53711;DHT22;39605;52.704;6.752;2022-09-01T16:31:09;23.50;56.60
53711;DHT22;39605;52.704;6.752;2022-09-01T16:33:36;23.50;56.00
53711;DHT22;39605;52.704;6.752;2022-09-01T16:36:09;23.40;55.30
53711;DHT22;39605;52.704;6.752;2022-09-01T16:47:49;23.20;56.80
53711;DHT22;39605;52.704;6.752;2022-09-01T16:50:17;23.10;57.20
53711;DHT22;39605;52.704;6.752;2022-09-01T16:55:46;23.10;57.00
53711;DHT22;39605;52.704;6.752;2022-09-01T16:58:21;23.00;56.80
53711;DHT22;39605;52.704;6.752;2022-09-01T17:06:31;22.80;57.20
53711;DHT22;39605;52.704;6.752;2022-09-01T17:09:29;22.70;57.90
53711;DHT22;39605;52.704;6.752;2022-09-01T17:12:16;22.70;58.00
53711;DHT22;39605;52.704;6.752;2022-09-01T17:14:51;22.70;58.20
53711;DHT22;39605;52.704;6.752;2022-09-01T17:17:43;22.60;58.00